sensor_id;sensor_type;location;lat;lon;timestamp;temperature;humidity
67354;SHT30;54238;52.278;21.056;2023-09-19T00:01:52;20.61;69.78
67354;SHT30;54238;52.278;21.056;2023-09-19T00:04:23;20.58;69.84
67354;SHT30;54238;52.278;21.056;2023-09-19T00:06:58;20.56;69.99
67354;SHT30;54238;52.278;21.056;2023-09-19T00:09:29;20.51;70.15
67354;SHT30;54238;52.278;21.056;2023-09-19T00:11:56;20.51;70.18
67354;SHT30;54238;52.278;21.056;2023-09-19T00:14:26;20.47;70.36
67354;SHT30;54238;52.278;21.056;2023-09-19T00:16:55;20.44;70.47
67354;SHT30;54238;52.278;21.056;2023-09-19T00:19:27;20.42;70.54
67354;SHT30;54238;52.278;21.056;2023-09-19T00:22:01;20.41;70.59
67354;SHT30;54238;52.278;21.056;2023-09-19T00:24:34;20.39;70.53
67354;SHT30;54238;52.278;21.056;2023-09-19T00:27:04;20.39;70.50
67354;SHT30;54238;52.278;21.056;2023-09-19T00:29:32;20.39;70.57
67354;SHT30;54238;52.278;21.056;2023-09-19T00:32:02;20.37;70.49
67354;SHT30;54238;52.278;21.056;2023-09-19T00:34:32;20.36;70.61
67354;SHT30;54238;52.278;21.056;2023-09-19T00:37:06;20.34;70.59
67354;SHT30;54238;52.278;21.056;2023-09-19T00:39:37;20.32;70.85
67354;SHT30;54238;52.278;21.056;2023-09-19T00:42:10;20.29;70.91
67354;SHT30;54238;52.278;21.056;2023-09-19T00:44:47;20.24;71.18
67354;SHT30;54238;52.278;21.056;2023-09-19T00:47:18;20.19;71.33
67354;SHT30;54238;52.278;21.056;2023-09-19T00:49:47;20.18;71.23
67354;SHT30;54238;52.278;21.056;2023-09-19T01:00:57;20.13;71.49
67354;SHT30;54238;52.278;21.056;2023-09-19T01:03:36;20.14;71.60
67354;SHT30;54238;52.278;21.056;2023-09-19T01:06:10;20.12;71.43
67354;SHT30;54238;52.278;21.056;2023-09-19T01:08:42;20.13;71.44
67354;SHT30;54238;52.278;21.056;2023-09-19T01:11:13;20.12;71.58
67354;SHT30;54238;52.278;21.056;2023-09-19T01:14:07;20.10;71.57
67354;SHT30;54238;52.278;21.056;2023-09-19T01:16:50;20.06;71.84
67354;SHT30;54238;52.278;21.056;2023-09-19T01:25:50;19.93;72.18
67354;SHT30;54238;52.278;21.056;2023-09-19T01:29:34;19.89;72.16
67354;SHT30;54238;52.278;21.056;2023-09-19T01:32:03;19.87;72.44
67354;SHT30;54238;52.278;21.056;2023-09-19T01:37:18;19.83;72.48
67354;SHT30;54238;52.278;21.056;2023-09-19T01:39:53;19.83;72.63
67354;SHT30;54238;52.278;21.056;2023-09-19T01:45:27;19.82;72.68
67354;SHT30;54238;52.278;21.056;2023-09-19T01:53:55;19.81;72.71
67354;SHT30;54238;52.278;21.056;2023-09-19T01:56:36;19.83;72.66
67354;SHT30;54238;52.278;21.056;2023-09-19T01:59:13;19.83;72.63
67354;SHT30;54238;52.278;21.056;2023-09-19T02:01:56;19.84;72.68
67354;SHT30;54238;52.278;21.056;2023-09-19T02:04:27;19.84;72.67
67354;SHT30;54238;52.278;21.056;2023-09-19T02:06:57;19.85;72.57
67354;SHT30;54238;52.278;21.056;2023-09-19T02:09:34;19.84;72.62
67354;SHT30;54238;52.278;21.056;2023-09-19T02:12:02;19.85;72.63
67354;SHT30;54238;52.278;21.056;2023-09-19T02:14:33;19.82;72.65
67354;SHT30;54238;52.278;21.056;2023-09-19T02:17:01;19.82;72.65
67354;SHT30;54238;52.278;21.056;2023-09-19T02:19:36;19.81;72.71
67354;SHT30;54238;52.278;21.056;2023-09-19T02:22:05;19.80;72.80
67354;SHT30;54238;52.278;21.056;2023-09-19T02:24:37;19.77;72.89
67354;SHT30;54238;52.278;21.056;2023-09-19T02:27:07;19.75;72.90
67354;SHT30;54238;52.278;21.056;2023-09-19T02:29:34;19.75;72.81
67354;SHT30;54238;52.278;21.056;2023-09-19T02:32:01;19.75;72.85
67354;SHT30;54238;52.278;21.056;2023-09-19T02:34:29;19.73;73.00
67354;SHT30;54238;52.278;21.056;2023-09-19T02:36:58;19.70;73.06
67354;SHT30;54238;52.278;21.056;2023-09-19T02:39:32;19.68;73.06
67354;SHT30;54238;52.278;21.056;2023-09-19T02:42:00;19.66;73.16
67354;SHT30;54238;52.278;21.056;2023-09-19T02:44:34;19.63;73.22
67354;SHT30;54238;52.278;21.056;2023-09-19T02:47:08;19.62;73.29
67354;SHT30;54238;52.278;21.056;2023-09-19T02:49:39;19.60;73.37
67354;SHT30;54238;52.278;21.056;2023-09-19T02:52:07;19.58;73.38
67354;SHT30;54238;52.278;21.056;2023-09-19T02:54:36;19.58;73.39
67354;SHT30;54238;52.278;21.056;2023-09-19T02:57:04;19.57;73.43
67354;SHT30;54238;52.278;21.056;2023-09-19T02:59:33;19.53;73.57
67354;SHT30;54238;52.278;21.056;2023-09-19T03:02:04;19.51;73.57
67354;SHT30;54238;52.278;21.056;2023-09-19T03:04:38;19.48;73.72
67354;SHT30;54238;52.278;21.056;2023-09-19T03:07:08;19.44;73.93
67354;SHT30;54238;52.278;21.056;2023-09-19T03:09:38;19.40;73.99
67354;SHT30;54238;52.278;21.056;2023-09-19T03:12:08;19.37;74.07
67354;SHT30;54238;52.278;21.056;2023-09-19T03:14:37;19.36;74.11
67354;SHT30;54238;52.278;21.056;2023-09-19T03:17:06;19.34;74.16
67354;SHT30;54238;52.278;21.056;2023-09-19T03:19:38;19.32;74.18
67354;SHT30;54238;52.278;21.056;2023-09-19T03:22:06;19.31;74.27
67354;SHT30;54238;52.278;21.056;2023-09-19T03:24:35;19.29;74.26
67354;SHT30;54238;52.278;21.056;2023-09-19T03:27:03;19.28;74.31
67354;SHT30;54238;52.278;21.056;2023-09-19T03:29:33;19.29;74.34
67354;SHT30;54238;52.278;21.056;2023-09-19T03:32:01;19.28;74.44
67354;SHT30;54238;52.278;21.056;2023-09-19T03:34:28;19.28;74.40
67354;SHT30;54238;52.278;21.056;2023-09-19T03:36:58;19.29;74.36
67354;SHT30;54238;52.278;21.056;2023-09-19T03:39:28;19.29;74.48
67354;SHT30;54238;52.278;21.056;2023-09-19T03:42:00;19.30;74.43
67354;SHT30;54238;52.278;21.056;2023-09-19T03:44:33;19.31;74.46
67354;SHT30;54238;52.278;21.056;2023-09-19T03:47:00;19.29;74.52
67354;SHT30;54238;52.278;21.056;2023-09-19T03:49:31;19.30;74.54
67354;SHT30;54238;52.278;21.056;2023-09-19T03:52:01;19.30;74.48
67354;SHT30;54238;52.278;21.056;2023-09-19T03:54:32;19.29;74.53
67354;SHT30;54238;52.278;21.056;2023-09-19T03:57:07;19.27;74.54
67354;SHT30;54238;52.278;21.056;2023-09-19T03:59:34;19.26;74.61
67354;SHT30;54238;52.278;21.056;2023-09-19T04:02:06;19.23;74.68
67354;SHT30;54238;52.278;21.056;2023-09-19T04:04:49;19.23;74.64
67354;SHT30;54238;52.278;21.056;2023-09-19T04:07:19;19.24;74.60
67354;SHT30;54238;52.278;21.056;2023-09-19T04:09:49;19.25;74.54
67354;SHT30;54238;52.278;21.056;2023-09-19T04:12:23;19.25;74.59
67354;SHT30;54238;52.278;21.056;2023-09-19T04:14:55;19.25;74.63
67354;SHT30;54238;52.278;21.056;2023-09-19T04:17:25;19.23;74.75
67354;SHT30;54238;52.278;21.056;2023-09-19T04:19:57;19.21;74.75
67354;SHT30;54238;52.278;21.056;2023-09-19T04:22:24;19.21;74.78
67354;SHT30;54238;52.278;21.056;2023-09-19T04:24:54;19.20;74.80
67354;SHT30;54238;52.278;21.056;2023-09-19T04:27:23;19.18;74.79
67354;SHT30;54238;52.278;21.056;2023-09-19T04:29:53;19.19;74.79
67354;SHT30;54238;52.278;21.056;2023-09-19T04:32:31;19.17;74.91
67354;SHT30;54238;52.278;21.056;2023-09-19T04:34:58;19.16;74.91
67354;SHT30;54238;52.278;21.056;2023-09-19T04:37:32;19.14;74.98
67354;SHT30;54238;52.278;21.056;2023-09-19T04:40:02;19.15;74.90
67354;SHT30;54238;52.278;21.056;2023-09-19T04:42:34;19.14;75.03
67354;SHT30;54238;52.278;21.056;2023-09-19T04:45:09;19.14;75.10
67354;SHT30;54238;52.278;21.056;2023-09-19T04:47:40;19.14;75.06
67354;SHT30;54238;52.278;21.056;2023-09-19T04:50:10;19.14;75.07
67354;SHT30;54238;52.278;21.056;2023-09-19T04:52:43;19.16;75.10
67354;SHT30;54238;52.278;21.056;2023-09-19T04:55:14;19.17;75.09
67354;SHT30;54238;52.278;21.056;2023-09-19T04:57:51;19.20;75.01
67354;SHT30;54238;52.278;21.056;2023-09-19T05:00:22;19.23;74.97
67354;SHT30;54238;52.278;21.056;2023-09-19T05:02:51;19.25;74.93
67354;SHT30;54238;52.278;21.056;2023-09-19T05:05:24;19.28;74.85
67354;SHT30;54238;52.278;21.056;2023-09-19T05:07:55;19.30;74.84
67354;SHT30;54238;52.278;21.056;2023-09-19T05:10:25;19.33;74.74
67354;SHT30;54238;52.278;21.056;2023-09-19T05:12:53;19.36;74.67
67354;SHT30;54238;52.278;21.056;2023-09-19T05:15:28;19.39;74.55
67354;SHT30;54238;52.278;21.056;2023-09-19T05:17:57;19.43;74.44
67354;SHT30;54238;52.278;21.056;2023-09-19T05:20:27;19.47;74.37
67354;SHT30;54238;52.278;21.056;2023-09-19T05:23:02;19.50;74.28
67354;SHT30;54238;52.278;21.056;2023-09-19T05:25:38;19.54;74.15
67354;SHT30;54238;52.278;21.056;2023-09-19T05:28:13;19.56;74.09
67354;SHT30;54238;52.278;21.056;2023-09-19T05:30:43;19.61;73.99
67354;SHT30;54238;52.278;21.056;2023-09-19T05:33:16;19.64;73.85
67354;SHT30;54238;52.278;21.056;2023-09-19T05:35:48;19.68;73.71
67354;SHT30;54238;52.278;21.056;2023-09-19T05:38:18;19.71;73.57
67354;SHT30;54238;52.278;21.056;2023-09-19T05:40:47;19.74;73.46
67354;SHT30;54238;52.278;21.056;2023-09-19T05:43:17;19.77;73.38
67354;SHT30;54238;52.278;21.056;2023-09-19T05:45:46;19.80;73.30
67354;SHT30;54238;52.278;21.056;2023-09-19T05:48:21;19.83;73.24
67354;SHT30;54238;52.278;21.056;2023-09-19T05:50:48;19.85;73.17
67354;SHT30;54238;52.278;21.056;2023-09-19T05:53:16;19.88;73.11
67354;SHT30;54238;52.278;21.056;2023-09-19T05:55:48;19.92;72.91
67354;SHT30;54238;52.278;21.056;2023-09-19T05:58:23;19.99;72.77
67354;SHT30;54238;52.278;21.056;2023-09-19T06:00:50;20.04;72.61
67354;SHT30;54238;52.278;21.056;2023-09-19T06:03:19;20.11;72.48
67354;SHT30;54238;52.278;21.056;2023-09-19T06:05:47;20.16;72.30
67354;SHT30;54238;52.278;21.056;2023-09-19T06:08:18;20.24;72.16
67354;SHT30;54238;52.278;21.056;2023-09-19T06:10:46;20.30;71.96
67354;SHT30;54238;52.278;21.056;2023-09-19T06:13:13;20.36;71.82
67354;SHT30;54238;52.278;21.056;2023-09-19T06:15:43;20.39;71.61
67354;SHT30;54238;52.278;21.056;2023-09-19T06:18:13;20.42;71.44
67354;SHT30;54238;52.278;21.056;2023-09-19T06:20:47;20.45;71.30
67354;SHT30;54238;52.278;21.056;2023-09-19T06:23:19;20.50;71.21
67354;SHT30;54238;52.278;21.056;2023-09-19T06:25:48;20.59;71.04
67354;SHT30;54238;52.278;21.056;2023-09-19T06:28:20;20.66;70.74
67354;SHT30;54238;52.278;21.056;2023-09-19T06:30:54;20.72;70.50
67354;SHT30;54238;52.278;21.056;2023-09-19T06:33:21;20.78;70.22
67354;SHT30;54238;52.278;21.056;2023-09-19T06:35:51;20.86;70.02
67354;SHT30;54238;52.278;21.056;2023-09-19T06:38:25;20.96;69.89
67354;SHT30;54238;52.278;21.056;2023-09-19T06:40:55;21.06;69.62
67354;SHT30;54238;52.278;21.056;2023-09-19T06:43:30;21.18;69.32
67354;SHT30;54238;52.278;21.056;2023-09-19T06:46:03;21.31;69.09
67354;SHT30;54238;52.278;21.056;2023-09-19T06:48:31;21.49;68.81
67354;SHT30;54238;52.278;21.056;2023-09-19T06:51:00;21.66;68.28
67354;SHT30;54238;52.278;21.056;2023-09-19T06:53:32;21.80;67.96
67354;SHT30;54238;52.278;21.056;2023-09-19T06:56:02;21.93;67.40
67354;SHT30;54238;52.278;21.056;2023-09-19T06:58:33;22.06;67.06
67354;SHT30;54238;52.278;21.056;2023-09-19T07:01:03;22.17;66.22
67354;SHT30;54238;52.278;21.056;2023-09-19T07:03:30;22.27;65.40
67354;SHT30;54238;52.278;21.056;2023-09-19T07:06:02;22.34;65.04
67354;SHT30;54238;52.278;21.056;2023-09-19T07:08:32;22.40;64.29
67354;SHT30;54238;52.278;21.056;2023-09-19T07:11:01;22.44;64.50
67354;SHT30;54238;52.278;21.056;2023-09-19T07:13:36;22.50;64.10
67354;SHT30;54238;52.278;21.056;2023-09-19T07:16:06;22.57;63.88
67354;SHT30;54238;52.278;21.056;2023-09-19T07:18:40;22.63;62.98
67354;SHT30;54238;52.278;21.056;2023-09-19T07:21:13;22.74;63.18
67354;SHT30;54238;52.278;21.056;2023-09-19T07:23:45;22.84;62.54
67354;SHT30;54238;52.278;21.056;2023-09-19T07:26:17;22.94;62.41
67354;SHT30;54238;52.278;21.056;2023-09-19T07:28:47;22.94;62.01
67354;SHT30;54238;52.278;21.056;2023-09-19T07:31:14;22.92;62.01
67354;SHT30;54238;52.278;21.056;2023-09-19T07:33:44;22.87;61.91
67354;SHT30;54238;52.278;21.056;2023-09-19T07:36:15;22.83;62.02
67354;SHT30;54238;52.278;21.056;2023-09-19T07:38:42;22.84;62.23
67354;SHT30;54238;52.278;21.056;2023-09-19T07:41:15;22.88;62.13
67354;SHT30;54238;52.278;21.056;2023-09-19T07:43:42;22.93;62.02
67354;SHT30;54238;52.278;21.056;2023-09-19T07:46:13;22.93;61.90
67354;SHT30;54238;52.278;21.056;2023-09-19T07:48:45;22.96;61.99
67354;SHT30;54238;52.278;21.056;2023-09-19T07:51:19;23.00;61.85
67354;SHT30;54238;52.278;21.056;2023-09-19T07:53:48;23.00;61.76
67354;SHT30;54238;52.278;21.056;2023-09-19T07:56:19;23.00;61.88
67354;SHT30;54238;52.278;21.056;2023-09-19T07:58:47;23.03;62.05
67354;SHT30;54238;52.278;21.056;2023-09-19T08:01:17;23.01;61.81
67354;SHT30;54238;52.278;21.056;2023-09-19T08:03:44;22.98;62.09
67354;SHT30;54238;52.278;21.056;2023-09-19T08:06:11;23.00;62.32
67354;SHT30;54238;52.278;21.056;2023-09-19T08:08:43;23.00;62.35
67354;SHT30;54238;52.278;21.056;2023-09-19T08:11:13;23.00;62.31
67354;SHT30;54238;52.278;21.056;2023-09-19T08:13:48;22.96;62.39
67354;SHT30;54238;52.278;21.056;2023-09-19T08:16:17;22.96;62.59
67354;SHT30;54238;52.278;21.056;2023-09-19T08:18:47;23.00;62.55
67354;SHT30;54238;52.278;21.056;2023-09-19T08:21:25;23.01;62.31
67354;SHT30;54238;52.278;21.056;2023-09-19T08:23:56;23.03;62.38
67354;SHT30;54238;52.278;21.056;2023-09-19T08:26:23;23.05;62.41
67354;SHT30;54238;52.278;21.056;2023-09-19T08:28:51;23.10;62.43
67354;SHT30;54238;52.278;21.056;2023-09-19T08:31:26;23.13;62.42
67354;SHT30;54238;52.278;21.056;2023-09-19T08:33:53;23.12;62.42
67354;SHT30;54238;52.278;21.056;2023-09-19T08:36:23;23.13;62.53
67354;SHT30;54238;52.278;21.056;2023-09-19T08:38:50;23.17;62.58
67354;SHT30;54238;52.278;21.056;2023-09-19T08:41:20;23.24;62.57
67354;SHT30;54238;52.278;21.056;2023-09-19T08:43:49;23.27;62.52
67354;SHT30;54238;52.278;21.056;2023-09-19T08:46:20;23.23;62.43
67354;SHT30;54238;52.278;21.056;2023-09-19T08:51:41;23.05;62.76
67354;SHT30;54238;52.278;21.056;2023-09-19T08:54:19;22.98;62.98
67354;SHT30;54238;52.278;21.056;2023-09-19T08:56:53;22.95;63.10
67354;SHT30;54238;52.278;21.056;2023-09-19T08:59:30;22.93;63.22
67354;SHT30;54238;52.278;21.056;2023-09-19T09:02:04;22.91;63.35
67354;SHT30;54238;52.278;21.056;2023-09-19T09:04:41;22.85;63.53
67354;SHT30;54238;52.278;21.056;2023-09-19T09:07:15;22.84;63.62
67354;SHT30;54238;52.278;21.056;2023-09-19T09:09:45;22.82;63.79
67354;SHT30;54238;52.278;21.056;2023-09-19T09:12:13;22.87;63.97
67354;SHT30;54238;52.278;21.056;2023-09-19T09:14:44;22.89;63.85
67354;SHT30;54238;52.278;21.056;2023-09-19T09:17:16;22.91;63.95
67354;SHT30;54238;52.278;21.056;2023-09-19T09:19:47;22.88;63.93
67354;SHT30;54238;52.278;21.056;2023-09-19T09:22:14;22.78;64.22
67354;SHT30;54238;52.278;21.056;2023-09-19T09:27:24;22.61;64.98
67354;SHT30;54238;52.278;21.056;2023-09-19T09:29:55;22.45;65.68
67354;SHT30;54238;52.278;21.056;2023-09-19T09:35:01;22.18;66.59
67354;SHT30;54238;52.278;21.056;2023-09-19T09:37:39;22.05;66.92
67354;SHT30;54238;52.278;21.056;2023-09-19T09:40:16;21.91;67.66
67354;SHT30;54238;52.278;21.056;2023-09-19T09:42:50;21.76;67.96
67354;SHT30;54238;52.278;21.056;2023-09-19T09:45:25;21.66;68.64
67354;SHT30;54238;52.278;21.056;2023-09-19T09:48:04;21.53;69.17
67354;SHT30;54238;52.278;21.056;2023-09-19T09:50:50;21.47;69.89
67354;SHT30;54238;52.278;21.056;2023-09-19T09:53:24;21.39;70.55
67354;SHT30;54238;52.278;21.056;2023-09-19T09:56:09;21.29;71.38
67354;SHT30;54238;52.278;21.056;2023-09-19T09:58:50;21.17;71.92
67354;SHT30;54238;52.278;21.056;2023-09-19T10:01:38;21.06;72.59
67354;SHT30;54238;52.278;21.056;2023-09-19T10:04:28;20.99;73.41
67354;SHT30;54238;52.278;21.056;2023-09-19T10:07:03;20.93;73.67
67354;SHT30;54238;52.278;21.056;2023-09-19T10:09:45;20.88;74.12
67354;SHT30;54238;52.278;21.056;2023-09-19T10:12:20;20.86;74.65
67354;SHT30;54238;52.278;21.056;2023-09-19T10:14:51;20.83;74.91
67354;SHT30;54238;52.278;21.056;2023-09-19T10:17:20;20.81;75.14
67354;SHT30;54238;52.278;21.056;2023-09-19T10:19:55;20.80;75.40
67354;SHT30;54238;52.278;21.056;2023-09-19T10:22:38;20.79;75.62
67354;SHT30;54238;52.278;21.056;2023-09-19T10:25:11;20.77;75.41
67354;SHT30;54238;52.278;21.056;2023-09-19T10:27:38;20.78;75.51
67354;SHT30;54238;52.278;21.056;2023-09-19T10:30:09;20.78;75.63
67354;SHT30;54238;52.278;21.056;2023-09-19T10:32:39;20.80;75.71
67354;SHT30;54238;52.278;21.056;2023-09-19T10:35:08;20.82;75.69
67354;SHT30;54238;52.278;21.056;2023-09-19T10:37:40;20.85;75.88
67354;SHT30;54238;52.278;21.056;2023-09-19T10:40:10;20.88;75.73
67354;SHT30;54238;52.278;21.056;2023-09-19T10:42:45;20.93;75.57
67354;SHT30;54238;52.278;21.056;2023-09-19T10:45:16;21.03;75.67
67354;SHT30;54238;52.278;21.056;2023-09-19T10:47:44;21.17;75.56
67354;SHT30;54238;52.278;21.056;2023-09-19T10:50:20;21.28;75.34
67354;SHT30;54238;52.278;21.056;2023-09-19T10:52:51;21.35;74.92
67354;SHT30;54238;52.278;21.056;2023-09-19T10:55:31;21.42;75.03
67354;SHT30;54238;52.278;21.056;2023-09-19T10:58:05;21.48;74.42
67354;SHT30;54238;52.278;21.056;2023-09-19T11:00:53;21.51;74.04
67354;SHT30;54238;52.278;21.056;2023-09-19T11:03:31;21.51;74.08
67354;SHT30;54238;52.278;21.056;2023-09-19T11:14:14;21.38;74.31
67354;SHT30;54238;52.278;21.056;2023-09-19T11:30:35;21.37;74.97
67354;SHT30;54238;52.278;21.056;2023-09-19T11:46:14;21.48;73.11
67354;SHT30;54238;52.278;21.056;2023-09-19T11:48:48;21.44;73.45
67354;SHT30;54238;52.278;21.056;2023-09-19T11:51:17;21.42;73.71
67354;SHT30;54238;52.278;21.056;2023-09-19T11:53:52;21.40;73.60
67354;SHT30;54238;52.278;21.056;2023-09-19T11:56:32;21.39;73.86
67354;SHT30;54238;52.278;21.056;2023-09-19T11:59:11;21.36;73.97
67354;SHT30;54238;52.278;21.056;2023-09-19T12:01:51;21.37;74.23
67354;SHT30;54238;52.278;21.056;2023-09-19T12:07:08;21.42;74.28
67354;SHT30;54238;52.278;21.056;2023-09-19T12:15:03;21.40;74.30
67354;SHT30;54238;52.278;21.056;2023-09-19T12:17:38;21.47;74.44
67354;SHT30;54238;52.278;21.056;2023-09-19T12:20:11;21.51;74.35
67354;SHT30;54238;52.278;21.056;2023-09-19T12:22:42;21.54;74.21
67354;SHT30;54238;52.278;21.056;2023-09-19T12:25:15;21.56;73.91
67354;SHT30;54238;52.278;21.056;2023-09-19T12:27:48;21.58;73.73
67354;SHT30;54238;52.278;21.056;2023-09-19T12:30:30;21.58;73.47
67354;SHT30;54238;52.278;21.056;2023-09-19T12:33:00;21.54;73.27
67354;SHT30;54238;52.278;21.056;2023-09-19T12:35:30;21.49;73.36
67354;SHT30;54238;52.278;21.056;2023-09-19T12:38:04;21.42;73.57
67354;SHT30;54238;52.278;21.056;2023-09-19T12:40:33;21.39;73.63
67354;SHT30;54238;52.278;21.056;2023-09-19T12:43:03;21.37;73.65
67354;SHT30;54238;52.278;21.056;2023-09-19T12:45:34;21.34;73.84
67354;SHT30;54238;52.278;21.056;2023-09-19T12:48:24;21.33;74.05
67354;SHT30;54238;52.278;21.056;2023-09-19T12:53:39;21.27;74.05
67354;SHT30;54238;52.278;21.056;2023-09-19T12:56:13;21.27;74.22
67354;SHT30;54238;52.278;21.056;2023-09-19T12:58:48;21.27;74.23
67354;SHT30;54238;52.278;21.056;2023-09-19T13:01:23;21.25;74.28
67354;SHT30;54238;52.278;21.056;2023-09-19T13:04:27;21.26;74.26
67354;SHT30;54238;52.278;21.056;2023-09-19T13:06:56;21.29;74.41
67354;SHT30;54238;52.278;21.056;2023-09-19T13:09:29;21.32;74.43
67354;SHT30;54238;52.278;21.056;2023-09-19T13:12:34;21.35;74.60
67354;SHT30;54238;52.278;21.056;2023-09-19T13:15:10;21.42;74.44
67354;SHT30;54238;52.278;21.056;2023-09-19T13:17:51;21.48;74.28
67354;SHT30;54238;52.278;21.056;2023-09-19T13:20:29;21.52;74.10
67354;SHT30;54238;52.278;21.056;2023-09-19T13:23:08;21.54;73.97
67354;SHT30;54238;52.278;21.056;2023-09-19T13:25:53;21.56;74.07
67354;SHT30;54238;52.278;21.056;2023-09-19T13:28:20;21.57;73.96
67354;SHT30;54238;52.278;21.056;2023-09-19T13:30:51;21.57;73.85
67354;SHT30;54238;52.278;21.056;2023-09-19T13:33:21;21.59;74.01
67354;SHT30;54238;52.278;21.056;2023-09-19T13:35:55;21.60;74.07
67354;SHT30;54238;52.278;21.056;2023-09-19T13:38:28;21.62;74.09
67354;SHT30;54238;52.278;21.056;2023-09-19T13:40:58;21.63;74.14
67354;SHT30;54238;52.278;21.056;2023-09-19T13:43:26;21.67;74.10
67354;SHT30;54238;52.278;21.056;2023-09-19T13:45:56;21.68;74.22
67354;SHT30;54238;52.278;21.056;2023-09-19T13:48:24;21.67;74.14
67354;SHT30;54238;52.278;21.056;2023-09-19T13:50:56;21.68;74.31
67354;SHT30;54238;52.278;21.056;2023-09-19T13:53:30;21.69;74.27
67354;SHT30;54238;52.278;21.056;2023-09-19T13:56:01;21.68;74.27
67354;SHT30;54238;52.278;21.056;2023-09-19T13:58:33;21.71;74.32
67354;SHT30;54238;52.278;21.056;2023-09-19T14:01:01;21.74;74.35
67354;SHT30;54238;52.278;21.056;2023-09-19T14:03:31;21.74;74.33
67354;SHT30;54238;52.278;21.056;2023-09-19T14:06:04;21.74;74.42
67354;SHT30;54238;52.278;21.056;2023-09-19T14:08:32;21.75;74.45
67354;SHT30;54238;52.278;21.056;2023-09-19T14:11:05;21.74;74.42
67354;SHT30;54238;52.278;21.056;2023-09-19T14:13:35;21.76;74.50
67354;SHT30;54238;52.278;21.056;2023-09-19T14:16:06;21.77;74.49
67354;SHT30;54238;52.278;21.056;2023-09-19T14:18:37;21.78;74.52
67354;SHT30;54238;52.278;21.056;2023-09-19T14:21:07;21.82;74.52
67354;SHT30;54238;52.278;21.056;2023-09-19T14:23:38;21.83;74.50
67354;SHT30;54238;52.278;21.056;2023-09-19T14:26:13;21.81;74.41
67354;SHT30;54238;52.278;21.056;2023-09-19T14:28:40;21.78;74.50
67354;SHT30;54238;52.278;21.056;2023-09-19T14:31:10;21.76;74.60
67354;SHT30;54238;52.278;21.056;2023-09-19T14:33:41;21.73;74.79
67354;SHT30;54238;52.278;21.056;2023-09-19T14:36:08;21.68;75.08
67354;SHT30;54238;52.278;21.056;2023-09-19T14:38:40;21.65;75.08
67354;SHT30;54238;52.278;21.056;2023-09-19T14:41:09;21.61;74.90
67354;SHT30;54238;52.278;21.056;2023-09-19T14:43:36;21.60;74.35
67354;SHT30;54238;52.278;21.056;2023-09-19T14:46:08;21.61;74.08
67354;SHT30;54238;52.278;21.056;2023-09-19T14:48:38;21.63;73.83
67354;SHT30;54238;52.278;21.056;2023-09-19T14:51:06;21.64;73.73
67354;SHT30;54238;52.278;21.056;2023-09-19T14:53:43;21.67;73.76
67354;SHT30;54238;52.278;21.056;2023-09-19T14:56:12;21.68;73.61
67354;SHT30;54238;52.278;21.056;2023-09-19T14:58:46;21.70;73.57
67354;SHT30;54238;52.278;21.056;2023-09-19T15:01:15;21.76;73.66
67354;SHT30;54238;52.278;21.056;2023-09-19T15:03:42;21.92;73.34
67354;SHT30;54238;52.278;21.056;2023-09-19T15:06:17;22.01;72.92
67354;SHT30;54238;52.278;21.056;2023-09-19T15:08:47;22.00;72.52
67354;SHT30;54238;52.278;21.056;2023-09-19T15:11:17;21.96;72.37
67354;SHT30;54238;52.278;21.056;2023-09-19T15:13:44;21.92;72.31
67354;SHT30;54238;52.278;21.056;2023-09-19T15:16:17;21.89;72.19
67354;SHT30;54238;52.278;21.056;2023-09-19T15:18:49;21.87;72.27
67354;SHT30;54238;52.278;21.056;2023-09-19T15:21:19;21.83;72.33
67354;SHT30;54238;52.278;21.056;2023-09-19T15:23:48;21.81;72.27
67354;SHT30;54238;52.278;21.056;2023-09-19T15:26:18;21.81;72.19
67354;SHT30;54238;52.278;21.056;2023-09-19T15:28:46;21.81;71.90
67354;SHT30;54238;52.278;21.056;2023-09-19T15:31:25;21.79;71.62
67354;SHT30;54238;52.278;21.056;2023-09-19T15:33:54;21.84;71.72
67354;SHT30;54238;52.278;21.056;2023-09-19T15:36:22;22.09;71.42
67354;SHT30;54238;52.278;21.056;2023-09-19T15:41:22;22.64;70.39
67354;SHT30;54238;52.278;21.056;2023-09-19T15:43:50;22.88;69.91
67354;SHT30;54238;52.278;21.056;2023-09-19T15:46:17;22.99;69.57
67354;SHT30;54238;52.278;21.056;2023-09-19T15:48:50;23.04;69.03
67354;SHT30;54238;52.278;21.056;2023-09-19T15:51:19;23.07;68.53
67354;SHT30;54238;52.278;21.056;2023-09-19T15:53:50;23.13;68.03
67354;SHT30;54238;52.278;21.056;2023-09-19T15:56:22;23.13;67.79
67354;SHT30;54238;52.278;21.056;2023-09-19T15:58:54;23.11;67.99
67354;SHT30;54238;52.278;21.056;2023-09-19T16:01:25;23.08;67.82
67354;SHT30;54238;52.278;21.056;2023-09-19T16:03:57;23.01;67.72
67354;SHT30;54238;52.278;21.056;2023-09-19T16:06:28;22.94;67.95
67354;SHT30;54238;52.278;21.056;2023-09-19T16:08:59;22.88;68.04
67354;SHT30;54238;52.278;21.056;2023-09-19T16:11:32;22.80;68.09
67354;SHT30;54238;52.278;21.056;2023-09-19T16:14:03;22.71;68.16
67354;SHT30;54238;52.278;21.056;2023-09-19T16:16:38;22.60;68.37
67354;SHT30;54238;52.278;21.056;2023-09-19T16:19:05;22.49;68.62
67354;SHT30;54238;52.278;21.056;2023-09-19T16:21:39;22.39;68.98
67354;SHT30;54238;52.278;21.056;2023-09-19T16:24:10;22.29;69.10
67354;SHT30;54238;52.278;21.056;2023-09-19T16:26:37;22.20;69.37
67354;SHT30;54238;52.278;21.056;2023-09-19T16:29:10;22.12;69.58
67354;SHT30;54238;52.278;21.056;2023-09-19T16:31:40;22.03;69.88
67354;SHT30;54238;52.278;21.056;2023-09-19T16:34:12;21.96;70.06
67354;SHT30;54238;52.278;21.056;2023-09-19T16:36:44;21.89;70.30
67354;SHT30;54238;52.278;21.056;2023-09-19T16:39:15;21.84;70.48
67354;SHT30;54238;52.278;21.056;2023-09-19T16:41:47;21.79;70.68
67354;SHT30;54238;52.278;21.056;2023-09-19T16:44:17;21.72;70.80
67354;SHT30;54238;52.278;21.056;2023-09-19T16:46:47;21.67;70.99
67354;SHT30;54238;52.278;21.056;2023-09-19T16:49:17;21.61;71.21
67354;SHT30;54238;52.278;21.056;2023-09-19T16:51:44;21.54;71.37
67354;SHT30;54238;52.278;21.056;2023-09-19T16:54:12;21.51;71.54
67354;SHT30;54238;52.278;21.056;2023-09-19T16:56:39;21.45;71.66
67354;SHT30;54238;52.278;21.056;2023-09-19T16:59:06;21.41;71.80
67354;SHT30;54238;52.278;21.056;2023-09-19T17:01:33;21.35;71.95
67354;SHT30;54238;52.278;21.056;2023-09-19T17:04:02;21.32;72.08
67354;SHT30;54238;52.278;21.056;2023-09-19T17:06:29;21.28;72.19
67354;SHT30;54238;52.278;21.056;2023-09-19T17:08:59;21.26;72.27